Hye, Texas
Current Conditions -  °F | °C
As of 2:55 PM on Friday 31 Oct 2014 (Local Time) from KT82 Reporting Station
Clear Clear  
Wind Chill: 71°   Ceiling: Unl
Heat Index: 71°   Visibility: 10mi
Dew Point: 38°   Wind: 13mph
Humidity: 31%   Direction: 10°N
Pressure: 30.27"   Gusts: NA
Location:  30.24°N, 98.57°W
Report Text: KT82 311955Z AUTO 01011KT 10SM CLR 21/03 A3027 RMK AO2 T02140034
Loading
Personal Weather Stations






























Interactive Weather Map
Tropical Storm Tracking
New forecast layout! Learn more

10-Day Weather Forecast

Advertisements
Track Severe Weather on mobile